Weather at Crissy Field [CLOSED]

Public forecast

Using degrees Fahrenheit for public forecast. Weather courtesy of forecast.io.

Closest aviation weather report (METAR) to Crissy Field

Closest report is San Francisco International Airport, 11.8 nm (21.9 km) SSE.

2024/05/24 19:56 (retrieved 1 hour ago)

KSFO 241956Z 26012KT 10SM OVC015 14/08 A2994 RMK AO2 SLP137 T01390083

Closest aviation forecast (TAF) to Crissy Field

Closest forecast is San Francisco International Airport, 11.8 nm (21.9 km) SSE.

2024/05/24 18:18 Ammendment (retrieved 3 hours ago)

TAF AMD KSFO 241815Z 2418/2524 27015KT P6SM BKN010 FM242200 27020G30KT P6SM SCT030 FM250300 27015KT P6SM OVC010 FM252000 27020KT P6SM SCT015